createdAt,value
2024-02-09T00:00:46.618Z,90.38
2024-02-09T00:03:36.826Z,89.88
2024-02-09T00:06:07.452Z,89.58
2024-02-09T00:08:38.979Z,89.29
2024-02-09T00:11:08.788Z,89.03
2024-02-09T00:13:37.122Z,89.28
2024-02-09T00:16:07.658Z,89.55
2024-02-09T00:18:36.102Z,89.36
2024-02-09T00:21:04.956Z,89.45
2024-02-09T00:23:33.845Z,89.78
2024-02-09T00:26:03.274Z,89.35
2024-02-09T00:28:32.133Z,89.80
2024-02-09T00:31:00.811Z,89.99
2024-02-09T00:33:31.327Z,90.63
2024-02-09T00:36:00.013Z,90.52
2024-02-09T00:38:28.270Z,90.01
2024-02-09T00:40:56.943Z,90.17
2024-02-09T00:43:25.324Z,90.45
2024-02-09T00:45:55.508Z,90.20
2024-02-09T00:48:24.598Z,90.49
2024-02-09T00:50:54.649Z,90.37
2024-02-09T00:53:22.880Z,90.20
2024-02-09T00:55:51.524Z,90.34
2024-02-09T00:58:19.904Z,90.37
2024-02-09T01:00:48.482Z,90.39
2024-02-09T01:03:16.755Z,90.93
2024-02-09T01:05:45.694Z,91.34
2024-02-09T01:08:16.432Z,91.20
2024-02-09T01:10:45.260Z,91.70
2024-02-09T01:13:31.383Z,91.14
2024-02-09T01:16:17.627Z,91.37
2024-02-09T01:19:03.624Z,91.65
2024-02-09T01:21:49.741Z,91.28
2024-02-09T01:24:36.618Z,91.50
2024-02-09T01:27:22.777Z,91.74
2024-02-09T01:30:08.482Z,91.32
2024-02-09T01:32:54.657Z,90.96
2024-02-09T01:35:40.207Z,91.45
2024-02-09T01:38:26.220Z,91.61
2024-02-09T01:41:13.508Z,91.81
2024-02-09T01:43:59.837Z,91.85
2024-02-09T01:46:46.633Z,92.26
2024-02-09T01:49:33.499Z,91.89
2024-02-09T01:52:20.161Z,91.75
2024-02-09T01:55:06.506Z,91.76
2024-02-09T01:57:54.862Z,91.35
2024-02-09T02:00:41.348Z,91.50
2024-02-09T02:03:27.410Z,92.11
2024-02-09T02:06:14.546Z,92.45
2024-02-09T02:09:00.465Z,92.74
2024-02-09T02:11:47.076Z,91.90
2024-02-09T02:14:34.593Z,91.86
2024-02-09T02:17:20.464Z,91.96
2024-02-09T02:20:06.347Z,92.86
2024-02-09T02:23:00.294Z,92.91
2024-02-09T02:25:46.184Z,92.88
2024-02-09T02:28:32.333Z,93.04
2024-02-09T02:31:19.146Z,92.78
2024-02-09T02:34:05.150Z,92.84
2024-02-09T02:36:51.045Z,92.62
2024-02-09T02:39:37.138Z,92.80
2024-02-09T02:42:04.621Z,92.39
2024-02-09T02:44:32.024Z,92.20
2024-02-09T02:47:02.369Z,92.07
2024-02-09T02:49:48.282Z,92.12
2024-02-09T02:52:42.377Z,92.37
2024-02-09T02:55:28.399Z,92.59
2024-02-09T02:58:14.235Z,92.13
2024-02-09T03:01:00.444Z,92.38
2024-02-09T03:03:47.826Z,92.67
2024-02-09T03:06:16.670Z,92.68
2024-02-09T03:08:48.213Z,92.62
2024-02-09T03:11:18.389Z,92.56
2024-02-09T03:13:51.332Z,92.61
2024-02-09T03:16:20.656Z,92.44
2024-02-09T03:18:50.348Z,92.36
2024-02-09T03:21:21.559Z,92.56
2024-02-09T03:23:50.166Z,92.64
2024-02-09T03:26:18.859Z,92.55
2024-02-09T03:28:48.243Z,92.66
2024-02-09T03:31:17.180Z,93.02
2024-02-09T03:33:45.765Z,92.49
2024-02-09T03:36:20.791Z,92.49
2024-02-09T03:38:49.257Z,92.77
2024-02-09T03:41:17.916Z,92.70
2024-02-09T03:43:48.117Z,93.06
2024-02-09T03:46:16.936Z,92.57
2024-02-09T03:48:45.176Z,92.53
2024-02-09T03:51:15.081Z,91.73
2024-02-09T03:53:44.689Z,92.84
2024-02-09T03:56:13.271Z,93.22
2024-02-09T03:58:43.540Z,93.39
2024-02-09T04:01:12.997Z,92.96
2024-02-09T04:03:41.406Z,93.02
2024-02-09T04:06:10.139Z,93.25
2024-02-09T04:08:39.828Z,92.93
2024-02-09T04:11:08.416Z,93.11
2024-02-09T04:13:36.762Z,93.24
2024-02-09T04:16:09.592Z,93.43
2024-02-09T04:18:38.274Z,93.54
2024-02-09T04:21:06.944Z,93.60
2024-02-09T04:23:35.143Z,93.63
2024-02-09T04:26:05.313Z,93.35
2024-02-09T04:28:33.555Z,93.33
2024-02-09T04:31:02.294Z,93.59
2024-02-09T04:33:32.503Z,93.52
2024-02-09T04:36:02.170Z,93.26
2024-02-09T04:38:32.054Z,93.23
2024-02-09T04:41:00.656Z,93.32
2024-02-09T04:43:30.977Z,93.78
2024-02-09T04:45:59.557Z,93.41
2024-02-09T04:48:27.975Z,93.22
2024-02-09T04:50:56.705Z,92.97
2024-02-09T04:53:25.054Z,92.90
2024-02-09T04:55:53.727Z,93.37
2024-02-09T04:58:22.150Z,93.46
2024-02-09T05:00:52.154Z,93.20
2024-02-09T05:03:20.400Z,93.15
2024-02-09T05:05:49.086Z,93.05
2024-02-09T05:08:17.284Z,93.30
2024-02-09T05:10:48.131Z,93.42
2024-02-09T05:13:16.644Z,93.67
2024-02-09T05:15:45.236Z,93.75
2024-02-09T05:18:15.753Z,93.35
2024-02-09T05:20:50.004Z,93.03
2024-02-09T05:23:18.292Z,92.97
2024-02-09T05:25:46.909Z,92.43
2024-02-09T05:28:15.197Z,92.39
2024-02-09T05:30:43.826Z,91.91
2024-02-09T05:33:12.465Z,92.28
2024-02-09T05:35:44.495Z,92.35
2024-02-09T05:38:13.328Z,91.96
2024-02-09T05:40:41.999Z,92.25
2024-02-09T05:43:10.313Z,92.26
2024-02-09T05:45:38.905Z,92.82
2024-02-09T05:48:07.982Z,92.49
2024-02-09T05:50:40.592Z,92.24
2024-02-09T05:53:10.937Z,92.45
2024-02-09T05:55:40.221Z,92.72
2024-02-09T05:58:08.679Z,92.74
2024-02-09T06:00:37.317Z,92.65
2024-02-09T06:03:08.503Z,92.50
2024-02-09T06:05:41.614Z,92.33
2024-02-09T06:08:11.557Z,92.65
2024-02-09T06:10:40.507Z,92.14
2024-02-09T06:13:09.215Z,92.24
2024-02-09T06:15:38.974Z,91.97
2024-02-09T06:18:07.603Z,92.06
2024-02-09T06:20:36.259Z,91.75
2024-02-09T06:23:06.035Z,91.99
2024-02-09T06:25:36.038Z,92.00
2024-02-09T06:28:04.634Z,91.88
2024-02-09T06:30:34.453Z,92.04
2024-02-09T06:33:03.512Z,91.46
2024-02-09T06:35:34.914Z,91.61
2024-02-09T06:38:04.949Z,91.29
2024-02-09T06:40:36.007Z,91.82
2024-02-09T06:43:04.326Z,91.50
2024-02-09T06:45:36.641Z,91.95
2024-02-09T06:48:06.941Z,91.48
2024-02-09T06:50:36.694Z,90.75
2024-02-09T06:53:06.905Z,91.25
2024-02-09T06:55:37.818Z,90.95
2024-02-09T06:58:06.551Z,90.34
2024-02-09T07:00:36.858Z,90.48
2024-02-09T07:03:05.852Z,90.27
2024-02-09T07:05:35.744Z,89.89
2024-02-09T07:08:04.232Z,89.72
2024-02-09T07:10:32.852Z,89.46
2024-02-09T07:13:02.481Z,89.24
2024-02-09T07:15:31.699Z,89.44
2024-02-09T07:18:01.491Z,89.19
2024-02-09T07:20:30.398Z,88.11
2024-02-09T07:22:58.722Z,88.62
2024-02-09T07:25:27.346Z,87.73
2024-02-09T07:27:55.610Z,88.11
2024-02-09T07:30:26.547Z,87.97
2024-02-09T07:32:55.071Z,88.49
2024-02-09T07:35:23.736Z,88.46
2024-02-09T07:37:52.151Z,88.34
2024-02-09T07:40:22.128Z,88.65
2024-02-09T07:42:50.460Z,87.89
2024-02-09T07:45:19.074Z,87.70
2024-02-09T07:47:50.666Z,87.68
2024-02-09T07:50:19.490Z,87.52
2024-02-09T07:52:47.967Z,87.36
2024-02-09T07:55:19.880Z,87.36
2024-02-09T07:57:48.267Z,87.02
2024-02-09T08:00:20.963Z,87.32
2024-02-09T08:02:50.562Z,87.55
2024-02-09T08:05:22.484Z,87.11
2024-02-09T08:07:51.042Z,87.51
2024-02-09T08:10:19.997Z,86.32
2024-02-09T08:12:48.759Z,86.99
2024-02-09T08:15:17.682Z,86.43
2024-02-09T08:17:53.014Z,86.27
2024-02-09T08:20:25.004Z,86.15
2024-02-09T08:22:54.852Z,85.67
2024-02-09T08:25:23.553Z,85.51
2024-02-09T08:27:51.834Z,84.54
2024-02-09T08:30:20.440Z,83.87
2024-02-09T08:32:48.786Z,83.25
2024-02-09T08:35:17.565Z,82.94
2024-02-09T08:37:47.527Z,82.41
2024-02-09T08:40:16.913Z,82.33
2024-02-09T08:42:47.892Z,82.37
2024-02-09T08:45:17.880Z,82.44
2024-02-09T08:47:46.261Z,81.88
2024-02-09T08:50:15.086Z,81.01
2024-02-09T08:52:44.029Z,81.69
2024-02-09T08:55:14.032Z,81.38
2024-02-09T08:57:43.727Z,80.60
2024-02-09T09:00:13.021Z,80.58
2024-02-09T09:02:41.370Z,80.96
2024-02-09T09:05:10.747Z,81.21
2024-02-09T09:07:39.219Z,81.09
2024-02-09T09:10:08.497Z,81.04
2024-02-09T09:12:39.503Z,80.44
2024-02-09T09:15:09.135Z,80.33
2024-02-09T09:17:37.482Z,80.48
2024-02-09T09:20:07.587Z,79.50
2024-02-09T09:22:35.892Z,79.76
2024-02-09T09:25:05.493Z,79.53
2024-02-09T09:27:35.710Z,78.58
2024-02-09T09:30:07.555Z,78.11
2024-02-09T09:32:35.924Z,78.15
2024-02-09T09:35:05.028Z,78.05
2024-02-09T09:37:33.390Z,77.31
2024-02-09T09:40:02.556Z,77.31
2024-02-09T09:42:31.437Z,77.01
2024-02-09T09:45:00.096Z,78.66
2024-02-09T09:47:31.558Z,79.64
2024-02-09T09:50:01.330Z,79.95
2024-02-09T09:52:31.792Z,80.08
2024-02-09T09:55:02.993Z,80.68
2024-02-09T09:57:32.256Z,80.82
2024-02-09T10:00:01.581Z,80.96
2024-02-09T10:02:32.040Z,80.75
2024-02-09T10:05:01.020Z,80.61
2024-02-09T10:07:29.671Z,80.77
2024-02-09T10:09:59.062Z,81.13
2024-02-09T10:12:28.420Z,81.18
2024-02-09T10:14:57.808Z,80.13
2024-02-09T10:17:26.100Z,79.87
2024-02-09T10:19:57.739Z,81.03
2024-02-09T10:22:27.170Z,81.72
2024-02-09T10:24:56.994Z,81.96
2024-02-09T10:27:25.272Z,82.33
2024-02-09T10:29:54.120Z,81.72
2024-02-09T10:32:22.375Z,81.80
2024-02-09T10:34:52.889Z,81.27
2024-02-09T10:37:28.948Z,80.42
2024-02-09T10:40:01.040Z,78.70
2024-02-09T10:42:31.522Z,78.92
2024-02-09T10:45:06.100Z,79.08
2024-02-09T10:47:42.379Z,78.69
2024-02-09T10:50:13.493Z,77.89
2024-02-09T10:52:46.645Z,77.14
2024-02-09T10:55:17.132Z,77.93
2024-02-09T10:57:47.071Z,77.50
2024-02-09T11:00:18.094Z,77.87
2024-02-09T11:02:46.791Z,76.54
2024-02-09T11:05:17.444Z,75.69
2024-02-09T11:07:50.873Z,76.80
2024-02-09T11:10:19.989Z,77.96
2024-02-09T11:12:59.214Z,77.21
2024-02-09T11:15:33.626Z,78.20
2024-02-09T11:18:03.286Z,78.85
2024-02-09T11:20:33.755Z,78.74
2024-02-09T11:23:03.830Z,79.28
2024-02-09T11:25:35.908Z,79.23
2024-02-09T11:28:09.225Z,79.96
2024-02-09T11:30:40.485Z,79.67
2024-02-09T11:33:12.202Z,79.94
2024-02-09T11:35:40.810Z,81.63
2024-02-09T11:38:10.406Z,82.01
2024-02-09T11:40:39.084Z,82.05
2024-02-09T11:43:07.612Z,82.48
2024-02-09T11:45:37.725Z,82.48
2024-02-09T11:48:07.926Z,83.25
2024-02-09T11:50:37.489Z,82.23
2024-02-09T11:53:12.008Z,83.08
2024-02-09T11:55:44.988Z,83.77
2024-02-09T11:58:14.915Z,84.28
2024-02-09T12:00:45.037Z,84.43
2024-02-09T12:03:17.257Z,83.77
2024-02-09T12:05:48.710Z,83.54
2024-02-09T12:08:20.478Z,83.09
2024-02-09T12:10:52.478Z,83.36
2024-02-09T12:13:21.705Z,83.65
2024-02-09T12:15:51.135Z,82.59
2024-02-09T12:18:19.795Z,82.50
2024-02-09T12:20:48.811Z,82.75
2024-02-09T12:23:17.537Z,84.16
2024-02-09T12:25:47.093Z,84.17
2024-02-09T12:28:24.679Z,84.09
2024-02-09T12:30:53.591Z,83.99
2024-02-09T12:33:24.925Z,84.23
2024-02-09T12:35:56.189Z,83.43
2024-02-09T12:38:24.769Z,83.32
2024-02-09T12:40:58.693Z,83.88
2024-02-09T12:43:29.248Z,83.86
2024-02-09T12:45:58.001Z,83.22
2024-02-09T12:48:27.080Z,83.09
2024-02-09T12:50:57.699Z,83.16
2024-02-09T12:53:27.276Z,83.61
2024-02-09T12:55:57.086Z,84.00
2024-02-09T12:58:25.908Z,84.20
2024-02-09T13:00:59.456Z,83.95
2024-02-09T13:03:30.511Z,83.68
2024-02-09T13:05:59.450Z,84.19
2024-02-09T13:08:30.664Z,83.83
2024-02-09T13:10:59.534Z,83.41
2024-02-09T13:13:27.991Z,82.89
2024-02-09T13:15:58.240Z,83.71
2024-02-09T13:18:26.742Z,83.87
2024-02-09T13:20:55.492Z,83.81
2024-02-09T13:23:27.151Z,83.75
2024-02-09T13:25:58.487Z,83.43
2024-02-09T13:28:31.867Z,83.64
2024-02-09T13:31:02.712Z,83.44
2024-02-09T13:33:31.617Z,83.81
2024-02-09T13:36:00.823Z,83.71
2024-02-09T13:38:29.140Z,83.66
2024-02-09T13:40:57.803Z,83.72
2024-02-09T13:43:29.394Z,83.93
2024-02-09T13:45:57.510Z,84.11
2024-02-09T13:48:27.310Z,84.10
2024-02-09T13:50:56.135Z,84.33
2024-02-09T13:53:24.493Z,84.16
2024-02-09T13:55:54.070Z,84.89
2024-02-09T13:58:23.028Z,85.17
2024-02-09T14:00:51.967Z,85.13
2024-02-09T14:03:20.887Z,85.46
2024-02-09T14:05:51.684Z,84.59
2024-02-09T14:08:21.909Z,84.53
2024-02-09T14:10:51.079Z,84.29
2024-02-09T14:13:19.563Z,84.68
2024-02-09T14:15:50.638Z,83.89
2024-02-09T14:18:20.165Z,84.34
2024-02-09T14:20:50.639Z,83.92
2024-02-09T14:23:19.151Z,83.67
2024-02-09T14:25:48.423Z,83.12
2024-02-09T14:28:17.714Z,83.99
2024-02-09T14:30:46.538Z,83.31
2024-02-09T14:33:14.884Z,83.02
2024-02-09T14:35:45.352Z,83.04
2024-02-09T14:38:15.340Z,82.64
2024-02-09T14:40:44.124Z,82.83
2024-02-09T14:43:15.123Z,82.96
2024-02-09T14:45:43.838Z,83.52
2024-02-09T14:48:12.229Z,82.62
2024-02-09T14:50:40.929Z,83.34
2024-02-09T14:53:09.588Z,82.51
2024-02-09T14:55:44.680Z,82.38
2024-02-09T14:58:13.574Z,82.14
2024-02-09T15:00:42.213Z,81.66
2024-02-09T15:03:10.917Z,81.77
2024-02-09T15:05:43.851Z,81.87
2024-02-09T15:08:14.210Z,81.91
2024-02-09T15:10:44.728Z,81.23
2024-02-09T15:13:15.117Z,80.71
2024-02-09T15:15:45.885Z,80.93
2024-02-09T15:18:16.595Z,80.92
2024-02-09T15:20:48.799Z,81.26
2024-02-09T15:23:17.094Z,81.41
2024-02-09T15:25:47.017Z,81.57
2024-02-09T15:28:15.761Z,81.65
2024-02-09T15:30:45.375Z,80.94
2024-02-09T15:33:14.156Z,80.67
2024-02-09T15:35:43.060Z,80.81
2024-02-09T15:38:11.841Z,79.29
2024-02-09T15:40:40.768Z,79.39
2024-02-09T15:43:10.570Z,79.33
2024-02-09T15:45:40.237Z,79.44
2024-02-09T15:48:09.404Z,79.44
2024-02-09T15:50:38.646Z,79.43
2024-02-09T15:53:09.212Z,79.03
2024-02-09T15:55:40.143Z,78.76
2024-02-09T15:58:10.140Z,79.01
2024-02-09T16:00:38.940Z,79.65
2024-02-09T16:03:07.413Z,79.22
2024-02-09T16:05:36.250Z,79.50
2024-02-09T16:08:04.974Z,80.08
2024-02-09T16:10:36.030Z,80.28
2024-02-09T16:13:04.849Z,82.35
2024-02-09T16:15:34.919Z,83.85
2024-02-09T16:18:08.963Z,85.76
2024-02-09T16:20:39.361Z,87.69
2024-02-09T16:23:08.774Z,88.53
2024-02-09T16:25:37.201Z,89.34
2024-02-09T16:28:07.606Z,89.79
2024-02-09T16:30:38.933Z,90.09
2024-02-09T16:33:07.372Z,90.96
2024-02-09T16:35:39.445Z,91.44
2024-02-09T16:38:07.862Z,91.77
2024-02-09T16:40:36.624Z,91.94
2024-02-09T16:43:05.363Z,92.15
2024-02-09T16:45:34.218Z,92.40
2024-02-09T16:48:04.103Z,92.40
2024-02-09T16:50:32.792Z,92.99
2024-02-09T16:53:02.431Z,92.91
2024-02-09T16:55:31.128Z,92.86
2024-02-09T16:57:59.495Z,93.52
2024-02-09T17:00:28.277Z,92.89
2024-02-09T17:02:56.722Z,93.09
2024-02-09T17:05:28.515Z,93.28
2024-02-09T17:07:58.802Z,93.35
2024-02-09T17:10:27.503Z,93.58
2024-02-09T17:12:55.971Z,93.72
2024-02-09T17:15:24.702Z,93.62
2024-02-09T17:17:53.141Z,93.52
2024-02-09T17:20:21.897Z,93.68
2024-02-09T17:22:51.716Z,93.71
2024-02-09T17:25:20.461Z,93.54
2024-02-09T17:27:49.931Z,93.48
2024-02-09T17:30:18.386Z,94.03
2024-02-09T17:32:46.807Z,94.07
2024-02-09T17:35:16.489Z,93.99
2024-02-09T17:37:45.228Z,94.48
2024-02-09T17:40:19.935Z,94.30
2024-02-09T17:42:49.947Z,94.49
2024-02-09T17:45:19.058Z,94.37
2024-02-09T17:47:54.493Z,94.33
2024-02-09T17:50:23.910Z,94.06
2024-02-09T17:52:54.216Z,94.38
2024-02-09T17:55:24.581Z,93.85
2024-02-09T17:57:53.200Z,93.86
2024-02-09T18:00:23.581Z,94.47
2024-02-09T18:02:51.961Z,93.97
2024-02-09T18:05:22.560Z,94.57
2024-02-09T18:07:51.117Z,94.24
2024-02-09T18:10:20.181Z,94.65
2024-02-09T18:12:50.599Z,94.39
2024-02-09T18:15:21.181Z,94.38
2024-02-09T18:17:50.608Z,94.53
2024-02-09T18:20:19.054Z,94.45
2024-02-09T18:22:47.661Z,93.74
2024-02-09T18:25:19.630Z,93.99
2024-02-09T18:27:49.477Z,93.92
2024-02-09T18:30:20.320Z,94.14
2024-02-09T18:32:52.223Z,94.16
2024-02-09T18:35:23.184Z,94.31
2024-02-09T18:37:51.911Z,94.24
2024-02-09T18:40:23.162Z,94.09
2024-02-09T18:42:54.006Z,94.43
2024-02-09T18:45:24.931Z,94.48
2024-02-09T18:47:54.303Z,94.76
2024-02-09T18:50:23.422Z,94.61
2024-02-09T18:52:52.300Z,94.15
2024-02-09T18:55:23.613Z,94.72
2024-02-09T18:57:54.085Z,94.56
2024-02-09T19:00:25.031Z,94.64
2024-02-09T19:02:53.794Z,94.32
2024-02-09T19:05:23.438Z,94.00
2024-02-09T19:07:52.194Z,94.04
2024-02-09T19:10:21.219Z,94.23
2024-02-09T19:12:58.611Z,94.35
2024-02-09T19:15:32.184Z,93.98
2024-02-09T19:18:01.490Z,94.43
2024-02-09T19:20:31.420Z,94.34
2024-02-09T19:23:02.427Z,94.63
2024-02-09T19:25:32.198Z,93.96
2024-02-09T19:28:03.293Z,94.07
2024-02-09T19:30:32.485Z,94.34
2024-02-09T19:33:00.979Z,94.98
2024-02-09T19:35:29.879Z,95.29
2024-02-09T19:37:58.537Z,95.18
2024-02-09T19:40:28.103Z,94.73
2024-02-09T19:42:56.628Z,95.03
2024-02-09T19:45:26.923Z,94.77
2024-02-09T19:47:56.846Z,94.67
2024-02-09T19:50:26.794Z,95.11
2024-02-09T19:52:55.949Z,95.11
2024-02-09T19:55:24.840Z,94.97
2024-02-09T19:57:53.488Z,94.76
2024-02-09T20:00:22.661Z,94.29
2024-02-09T20:02:56.862Z,94.21
2024-02-09T20:05:32.370Z,94.75
2024-02-09T20:08:01.263Z,95.01
2024-02-09T20:10:30.052Z,94.70
2024-02-09T20:12:58.476Z,94.41
2024-02-09T20:15:29.087Z,94.61
2024-02-09T20:17:59.891Z,94.38
2024-02-09T20:20:29.947Z,93.99
2024-02-09T20:22:58.939Z,94.35
2024-02-09T20:25:28.033Z,94.32
2024-02-09T20:27:57.737Z,94.55
2024-02-09T20:30:27.071Z,94.83
2024-02-09T20:32:55.639Z,94.11
2024-02-09T20:35:27.721Z,94.05
2024-02-09T20:37:56.841Z,94.26
2024-02-09T20:40:25.987Z,94.18
2024-02-09T20:42:54.571Z,94.66
2024-02-09T20:45:23.410Z,94.22
2024-02-09T20:47:52.495Z,94.73
2024-02-09T20:50:21.638Z,94.48
2024-02-09T20:52:52.508Z,94.59
2024-02-09T20:55:23.780Z,94.43
2024-02-09T20:57:53.069Z,94.13
2024-02-09T21:00:22.673Z,93.86
2024-02-09T21:02:53.794Z,94.19
2024-02-09T21:05:24.637Z,94.76
2024-02-09T21:07:54.786Z,94.32
2024-02-09T21:10:24.067Z,94.49
2024-02-09T21:12:52.461Z,94.57
2024-02-09T21:15:21.690Z,94.23
2024-02-09T21:17:52.723Z,94.28
2024-02-09T21:20:22.091Z,94.20
2024-02-09T21:22:57.346Z,94.31
2024-02-09T21:25:29.966Z,94.27
2024-02-09T21:27:58.354Z,94.21
2024-02-09T21:30:27.347Z,94.25
2024-02-09T21:33:00.254Z,94.33
2024-02-09T21:35:31.571Z,94.54
2024-02-09T21:38:01.175Z,94.17
2024-02-09T21:40:33.182Z,93.74
2024-02-09T21:43:03.015Z,94.26
2024-02-09T21:45:31.995Z,93.81
2024-02-09T21:48:00.748Z,94.03
2024-02-09T21:50:30.749Z,94.46
2024-02-09T21:52:59.575Z,94.67
2024-02-09T21:55:29.228Z,94.58
2024-02-09T21:57:59.204Z,94.13
2024-02-09T22:00:27.881Z,93.41
2024-02-09T22:02:56.539Z,93.23
2024-02-09T22:05:27.136Z,92.26
2024-02-09T22:07:55.583Z,92.34
2024-02-09T22:10:26.706Z,91.69
2024-02-09T22:12:55.806Z,92.20
2024-02-09T22:15:25.911Z,92.17
2024-02-09T22:17:55.513Z,91.37
2024-02-09T22:20:31.574Z,91.74
2024-02-09T22:23:00.771Z,92.04
2024-02-09T22:25:44.364Z,91.57
2024-02-09T22:28:32.010Z,92.00
2024-02-09T22:31:04.260Z,91.95
2024-02-09T22:33:33.331Z,91.97
2024-02-09T22:36:02.004Z,91.51
2024-02-09T22:38:32.474Z,91.48
2024-02-09T22:41:01.118Z,91.65
2024-02-09T22:43:29.516Z,92.12
2024-02-09T22:45:58.142Z,91.62
2024-02-09T22:48:29.503Z,91.80
2024-02-09T22:50:58.701Z,91.39
2024-02-09T22:53:26.893Z,91.60
2024-02-09T22:55:57.170Z,91.15
2024-02-09T22:58:26.869Z,91.92
2024-02-09T23:00:56.273Z,91.47
2024-02-09T23:03:24.689Z,90.70
2024-02-09T23:05:55.230Z,90.91
2024-02-09T23:08:23.452Z,91.80
2024-02-09T23:10:57.295Z,92.15
2024-02-09T23:13:25.736Z,91.71
2024-02-09T23:15:55.338Z,92.53
2024-02-09T23:18:28.876Z,92.35
2024-02-09T23:20:58.931Z,92.35
2024-02-09T23:23:27.174Z,92.82
2024-02-09T23:25:55.963Z,92.22
2024-02-09T23:28:29.745Z,92.53
2024-02-09T23:30:58.424Z,92.79
2024-02-09T23:33:31.529Z,92.74
2024-02-09T23:36:01.876Z,92.49
2024-02-09T23:38:31.575Z,93.14
2024-02-09T23:41:00.205Z,93.51
2024-02-09T23:43:29.476Z,93.25
2024-02-09T23:45:58.305Z,93.39
2024-02-09T23:48:30.120Z,93.44
2024-02-09T23:51:01.163Z,93.70
2024-02-09T23:53:29.543Z,93.52
2024-02-09T23:55:58.269Z,93.41
2024-02-09T23:58:27.791Z,93.90
